createdAt,value
2023-07-24T00:01:16.089Z,19.46
2023-07-24T00:03:42.962Z,19.43
2023-07-24T00:06:10.222Z,19.39
2023-07-24T00:08:37.442Z,19.37
2023-07-24T00:11:06.503Z,19.35
2023-07-24T00:13:33.414Z,19.33
2023-07-24T00:16:00.327Z,19.32
2023-07-24T00:18:27.325Z,19.29
2023-07-24T00:20:54.064Z,19.26
2023-07-24T00:23:21.016Z,19.23
2023-07-24T00:25:47.879Z,19.24
2023-07-24T00:28:14.698Z,19.23
2023-07-24T00:30:42.084Z,19.24
2023-07-24T00:33:08.811Z,19.23
2023-07-24T00:35:35.592Z,19.22
2023-07-24T00:38:02.388Z,19.21
2023-07-24T00:40:29.079Z,19.20
2023-07-24T00:42:55.694Z,19.20
2023-07-24T00:45:23.829Z,19.19
2023-07-24T00:47:51.161Z,19.17
2023-07-24T00:50:18.949Z,19.14
2023-07-24T00:52:46.133Z,19.13
2023-07-24T00:55:14.224Z,19.13
2023-07-24T00:57:41.340Z,19.13
2023-07-24T01:00:09.333Z,19.15
2023-07-24T01:02:36.450Z,19.17
2023-07-24T01:05:03.333Z,19.17
2023-07-24T01:07:30.808Z,19.18
2023-07-24T01:09:57.705Z,19.21
2023-07-24T01:12:36.478Z,19.21
2023-07-24T01:15:25.853Z,19.23
2023-07-24T01:18:00.542Z,19.24
2023-07-24T01:20:30.723Z,19.26
2023-07-24T01:23:51.674Z,19.25
2023-07-24T01:26:19.013Z,19.26
2023-07-24T01:28:46.887Z,19.26
2023-07-24T01:31:13.704Z,19.27
2023-07-24T01:33:40.685Z,19.28
2023-07-24T01:36:08.605Z,19.29
2023-07-24T01:38:36.333Z,19.32
2023-07-24T01:41:04.290Z,19.34
2023-07-24T01:43:31.537Z,19.34
2023-07-24T01:45:58.813Z,19.34
2023-07-24T01:48:25.870Z,19.36
2023-07-24T01:50:52.902Z,19.37
2023-07-24T01:53:19.633Z,19.38
2023-07-24T01:55:46.375Z,19.37
2023-07-24T01:58:12.997Z,19.36
2023-07-24T02:00:39.844Z,19.35
2023-07-24T02:03:06.872Z,19.35
2023-07-24T02:05:33.600Z,19.32
2023-07-24T02:08:00.629Z,19.32
2023-07-24T02:10:27.684Z,19.33
2023-07-24T02:12:54.814Z,19.35
2023-07-24T02:15:21.678Z,19.35
2023-07-24T02:17:48.516Z,19.37
2023-07-24T02:20:15.746Z,19.38
2023-07-24T02:22:42.817Z,19.40
2023-07-24T02:25:10.109Z,19.41
2023-07-24T02:27:37.321Z,19.41
2023-07-24T02:30:04.836Z,19.40
2023-07-24T02:32:31.367Z,19.39
2023-07-24T02:34:58.096Z,19.39
2023-07-24T02:37:25.002Z,19.38
2023-07-24T02:39:53.342Z,19.34
2023-07-24T02:42:20.203Z,19.29
2023-07-24T02:44:46.863Z,19.24
2023-07-24T02:47:13.940Z,19.22
2023-07-24T02:49:41.386Z,19.20
2023-07-24T02:52:08.453Z,19.19
2023-07-24T02:54:35.356Z,19.20
2023-07-24T02:57:03.401Z,19.21
2023-07-24T02:59:31.095Z,19.23
2023-07-24T03:01:58.212Z,19.26
2023-07-24T03:04:25.209Z,19.29
2023-07-24T03:06:51.981Z,19.29
2023-07-24T03:09:18.617Z,19.30
2023-07-24T03:11:45.489Z,19.32
2023-07-24T03:14:12.316Z,19.33
2023-07-24T03:16:39.130Z,19.34
2023-07-24T03:19:05.912Z,19.34
2023-07-24T03:21:32.723Z,19.34
2023-07-24T03:23:59.697Z,19.34
2023-07-24T03:26:26.381Z,19.34
2023-07-24T03:28:53.234Z,19.33
2023-07-24T03:31:20.227Z,19.31
2023-07-24T03:33:47.177Z,19.30
2023-07-24T03:36:13.801Z,19.30
2023-07-24T03:38:40.831Z,19.30
2023-07-24T03:41:07.624Z,19.31
2023-07-24T03:43:34.556Z,19.34
2023-07-24T03:46:01.508Z,19.34
2023-07-24T03:48:28.406Z,19.37
2023-07-24T03:51:02.273Z,19.38
2023-07-24T03:53:29.580Z,19.39
2023-07-24T03:55:59.565Z,19.41
2023-07-24T03:58:26.515Z,19.44
2023-07-24T04:00:53.149Z,19.48
2023-07-24T04:03:20.492Z,19.50
2023-07-24T04:05:47.332Z,19.51
2023-07-24T04:08:14.152Z,19.52
2023-07-24T04:10:41.047Z,19.52
2023-07-24T04:13:07.782Z,19.51
2023-07-24T04:15:34.420Z,19.49
2023-07-24T04:18:01.050Z,19.47
2023-07-24T04:20:27.905Z,19.46
2023-07-24T04:22:54.820Z,19.46
2023-07-24T04:25:21.673Z,19.43
2023-07-24T04:27:48.442Z,19.41
2023-07-24T04:30:15.587Z,19.37
2023-07-24T04:32:42.798Z,19.35
2023-07-24T04:35:09.998Z,19.31
2023-07-24T04:37:36.968Z,19.26
2023-07-24T04:40:03.844Z,19.21
2023-07-24T04:42:30.690Z,19.17
2023-07-24T04:44:57.463Z,19.12
2023-07-24T04:47:24.593Z,19.08
2023-07-24T04:49:51.568Z,19.04
2023-07-24T04:52:18.533Z,19.02
2023-07-24T04:54:45.557Z,18.98
2023-07-24T04:57:12.448Z,18.96
2023-07-24T04:59:39.192Z,18.93
2023-07-24T05:02:05.982Z,18.92
2023-07-24T05:04:32.680Z,18.92
2023-07-24T05:06:59.803Z,18.92
2023-07-24T05:09:26.709Z,18.92
2023-07-24T05:11:53.751Z,18.95
2023-07-24T05:14:20.441Z,19.00
2023-07-24T05:16:47.413Z,19.06
2023-07-24T05:19:14.386Z,19.15
2023-07-24T05:21:41.120Z,19.27
2023-07-24T05:24:07.783Z,19.43
2023-07-24T05:26:34.407Z,19.54
2023-07-24T05:29:01.311Z,19.69
2023-07-24T05:31:28.437Z,19.88
2023-07-24T05:33:55.107Z,20.08
2023-07-24T05:36:21.749Z,20.27
2023-07-24T05:38:48.529Z,20.48
2023-07-24T05:41:15.237Z,20.61
2023-07-24T05:43:42.072Z,20.71
2023-07-24T05:46:08.898Z,20.79
2023-07-24T05:48:35.860Z,20.78
2023-07-24T05:51:03.382Z,20.72
2023-07-24T05:53:30.577Z,20.61
2023-07-24T05:56:02.043Z,20.49
2023-07-24T05:58:29.168Z,20.39
2023-07-24T06:00:59.147Z,20.30
2023-07-24T06:03:26.136Z,20.21
2023-07-24T06:05:56.535Z,20.12
2023-07-24T06:08:23.946Z,20.04
2023-07-24T06:10:51.577Z,19.96
2023-07-24T06:13:18.657Z,19.96
2023-07-24T06:15:45.612Z,20.01
2023-07-24T06:18:12.414Z,20.07
2023-07-24T06:20:39.294Z,20.14
2023-07-24T06:23:06.067Z,20.27
2023-07-24T06:25:33.601Z,20.41
2023-07-24T06:28:00.745Z,20.49
2023-07-24T06:30:27.493Z,20.58
2023-07-24T06:32:54.415Z,20.68
2023-07-24T06:35:21.240Z,20.77
2023-07-24T06:37:47.877Z,20.86
2023-07-24T06:40:15.065Z,20.94
2023-07-24T06:42:41.695Z,21.06
2023-07-24T06:45:09.017Z,21.17
2023-07-24T06:47:35.928Z,21.26
2023-07-24T06:50:03.876Z,21.38
2023-07-24T06:52:30.737Z,21.44
2023-07-24T06:54:59.125Z,21.44
2023-07-24T06:57:26.102Z,21.45
2023-07-24T06:59:55.122Z,21.46
2023-07-24T07:02:22.440Z,21.50
2023-07-24T07:04:49.330Z,21.49
2023-07-24T07:11:03.616Z,21.46
2023-07-24T07:13:30.419Z,21.42
2023-07-24T07:15:57.070Z,21.40
2023-07-24T07:18:24.297Z,21.35
2023-07-24T07:20:53.274Z,21.28
2023-07-24T07:23:20.525Z,21.18
2023-07-24T07:25:47.800Z,21.12
2023-07-24T07:28:15.810Z,21.07
2023-07-24T07:30:45.753Z,20.97
2023-07-24T07:33:13.041Z,20.87
2023-07-24T07:35:39.632Z,20.81
2023-07-24T07:38:06.497Z,20.76
2023-07-24T07:40:51.010Z,20.65
2023-07-24T07:43:18.048Z,20.44
2023-07-24T07:45:44.890Z,20.28
2023-07-24T07:48:11.709Z,20.12
2023-07-24T07:50:38.649Z,20.00
2023-07-24T07:53:05.359Z,19.91
2023-07-24T07:55:31.847Z,19.84
2023-07-24T07:57:58.624Z,19.73
2023-07-24T08:00:25.396Z,19.63
2023-07-24T08:02:52.339Z,19.55
2023-07-24T08:05:21.425Z,19.41
2023-07-24T08:07:48.858Z,19.29
2023-07-24T08:10:17.751Z,19.24
2023-07-24T08:12:45.043Z,19.22
2023-07-24T08:15:12.454Z,19.12
2023-07-24T08:17:39.325Z,19.00
2023-07-24T08:20:07.032Z,18.78
2023-07-24T08:22:33.801Z,18.49
2023-07-24T08:25:00.535Z,18.30
2023-07-24T08:27:27.336Z,18.15
2023-07-24T08:29:54.136Z,18.03
2023-07-24T08:32:21.838Z,17.96
2023-07-24T08:34:48.967Z,17.97
2023-07-24T08:37:16.147Z,18.14
2023-07-24T08:39:43.072Z,18.41
2023-07-24T08:42:13.973Z,18.63
2023-07-24T08:44:41.413Z,18.83
2023-07-24T08:47:11.487Z,18.95
2023-07-24T08:49:41.248Z,19.05
2023-07-24T08:52:10.653Z,19.14
2023-07-24T08:54:40.013Z,19.23
2023-07-24T08:57:10.074Z,19.28
2023-07-24T08:59:37.168Z,19.36
2023-07-24T09:02:03.924Z,19.49
2023-07-24T09:04:30.856Z,19.66
2023-07-24T09:06:59.115Z,19.83
2023-07-24T09:09:32.374Z,19.97
2023-07-24T09:12:00.702Z,20.04
2023-07-24T09:14:32.602Z,20.06
2023-07-24T09:17:10.330Z,20.08
2023-07-24T09:19:38.116Z,20.18
2023-07-24T09:22:19.211Z,20.25
2023-07-24T09:24:57.391Z,20.27
2023-07-24T09:27:31.688Z,20.35
2023-07-24T09:29:59.337Z,20.49
2023-07-24T09:32:27.511Z,20.70
2023-07-24T09:34:57.942Z,20.88
2023-07-24T09:37:30.451Z,21.13
2023-07-24T09:40:00.322Z,21.37
2023-07-24T09:42:52.894Z,21.46
2023-07-24T09:45:26.821Z,21.57
2023-07-24T09:48:00.121Z,21.75
2023-07-24T09:50:29.786Z,21.94
2023-07-24T09:52:58.019Z,22.02
2023-07-24T09:55:31.276Z,21.99
2023-07-24T09:57:59.947Z,21.89
2023-07-24T10:00:26.806Z,21.82
2023-07-24T10:02:54.089Z,21.88
2023-07-24T10:05:21.169Z,22.06
2023-07-24T10:07:48.584Z,22.30
2023-07-24T10:10:15.970Z,22.41
2023-07-24T10:12:42.926Z,22.49
2023-07-24T10:15:09.899Z,22.58
2023-07-24T10:17:41.598Z,22.67
2023-07-24T10:20:13.205Z,22.78
2023-07-24T10:22:44.019Z,23.03
2023-07-24T10:25:11.645Z,23.25
2023-07-24T10:27:48.410Z,23.29
2023-07-24T10:30:28.256Z,23.19
2023-07-24T10:33:12.809Z,23.14
2023-07-24T10:35:44.751Z,23.16
2023-07-24T10:38:12.565Z,23.37
2023-07-24T10:40:41.806Z,23.57
2023-07-24T10:43:10.709Z,23.81
2023-07-24T10:45:51.206Z,24.06
2023-07-24T10:48:19.057Z,24.23
2023-07-24T10:50:50.086Z,24.18
2023-07-24T10:53:22.170Z,24.07
2023-07-24T10:55:49.527Z,24.00
2023-07-24T10:58:16.395Z,24.02
2023-07-24T11:00:44.859Z,24.06
2023-07-24T11:03:12.843Z,24.01
2023-07-24T11:05:47.545Z,23.96
2023-07-24T11:08:16.505Z,23.90
2023-07-24T11:10:50.264Z,23.79
2023-07-24T11:13:18.427Z,23.70
2023-07-24T11:15:45.887Z,23.69
2023-07-24T11:18:13.236Z,23.73
2023-07-24T11:21:00.010Z,23.82
2023-07-24T11:23:26.878Z,23.96
2023-07-24T11:25:55.303Z,24.09
2023-07-24T11:28:21.973Z,24.20
2023-07-24T11:30:48.644Z,24.29
2023-07-24T11:33:19.333Z,24.39
2023-07-24T11:35:47.027Z,24.50
2023-07-24T11:38:14.596Z,24.72
2023-07-24T11:40:43.763Z,24.92
2023-07-24T11:43:24.953Z,25.08
2023-07-24T11:45:53.967Z,25.14
2023-07-24T11:48:21.993Z,25.27
2023-07-24T11:50:50.708Z,25.42
2023-07-24T11:53:26.584Z,25.42
2023-07-24T11:55:55.500Z,25.28
2023-07-24T11:58:23.084Z,25.09
2023-07-24T12:00:52.896Z,24.98
2023-07-24T12:03:28.602Z,24.86
2023-07-24T12:05:55.781Z,24.29
2023-07-24T12:08:32.094Z,23.70
2023-07-24T12:10:59.173Z,23.16
2023-07-24T12:13:25.964Z,22.74
2023-07-24T12:15:52.811Z,22.46
2023-07-24T12:18:19.800Z,22.33
2023-07-24T12:20:46.365Z,22.31
2023-07-24T12:23:13.170Z,22.33
2023-07-24T12:25:40.105Z,22.37
2023-07-24T12:28:06.877Z,22.36
2023-07-24T12:30:33.560Z,22.37
2023-07-24T12:33:00.536Z,22.33
2023-07-24T12:35:27.321Z,22.26
2023-07-24T12:37:54.004Z,22.18
2023-07-24T12:40:20.721Z,22.09
2023-07-24T12:42:48.233Z,22.04
2023-07-24T12:45:14.941Z,21.99
2023-07-24T12:47:41.570Z,21.88
2023-07-24T12:50:08.714Z,21.65
2023-07-24T12:52:35.308Z,21.27
2023-07-24T12:55:03.030Z,20.88
2023-07-24T12:57:30.656Z,20.51
2023-07-24T12:59:57.762Z,20.18
2023-07-24T13:02:24.820Z,19.93
2023-07-24T13:04:51.552Z,19.72
2023-07-24T13:07:18.486Z,19.60
2023-07-24T13:09:45.694Z,19.53
2023-07-24T13:12:12.485Z,19.51
2023-07-24T13:14:41.259Z,19.54
2023-07-24T13:17:09.651Z,19.75
2023-07-24T13:19:36.439Z,20.03
2023-07-24T13:22:03.449Z,20.29
2023-07-24T13:24:30.279Z,20.51
2023-07-24T13:26:57.036Z,20.69
2023-07-24T13:29:25.905Z,20.84
2023-07-24T13:31:53.436Z,20.95
2023-07-24T13:34:21.143Z,21.00
2023-07-24T13:36:48.522Z,21.06
2023-07-24T13:39:15.194Z,21.16
2023-07-24T13:41:42.377Z,21.22
2023-07-24T13:44:09.150Z,21.28
2023-07-24T13:46:39.465Z,21.29
2023-07-24T13:49:07.299Z,21.28
2023-07-24T13:51:33.950Z,21.19
2023-07-24T13:54:02.872Z,21.07
2023-07-24T13:56:32.335Z,20.94
2023-07-24T13:58:59.560Z,20.81
2023-07-24T14:01:26.488Z,20.49
2023-07-24T14:03:54.116Z,20.02
2023-07-24T14:06:20.910Z,19.60
2023-07-24T14:08:47.647Z,19.26
2023-07-24T14:11:14.447Z,19.01
2023-07-24T14:13:41.359Z,18.87
2023-07-24T14:16:08.017Z,18.76
2023-07-24T14:18:34.785Z,18.64
2023-07-24T14:21:02.553Z,18.50
2023-07-24T14:23:29.477Z,18.25
2023-07-24T14:25:56.154Z,17.83
2023-07-24T14:28:23.081Z,17.53
2023-07-24T14:30:49.872Z,17.39
2023-07-24T14:33:16.868Z,17.31
2023-07-24T14:35:44.094Z,17.28
2023-07-24T14:38:11.015Z,17.27
2023-07-24T14:40:37.776Z,17.27
2023-07-24T14:43:07.580Z,17.29
2023-07-24T14:45:35.131Z,17.31
2023-07-24T14:48:02.082Z,17.33
2023-07-24T14:50:29.733Z,17.32
2023-07-24T14:52:56.645Z,17.31
2023-07-24T14:55:23.453Z,17.29
2023-07-24T14:57:50.562Z,17.23
2023-07-24T15:00:17.895Z,17.16
2023-07-24T15:02:44.948Z,17.05
2023-07-24T15:05:12.021Z,17.00
2023-07-24T15:07:39.200Z,16.92
2023-07-24T15:10:06.901Z,16.84
2023-07-24T15:12:33.772Z,16.76
2023-07-24T15:15:00.375Z,16.73
2023-07-24T15:17:27.419Z,16.73
2023-07-24T15:19:54.677Z,16.75
2023-07-24T15:22:21.747Z,16.79
2023-07-24T15:24:48.745Z,16.85
2023-07-24T15:27:16.001Z,16.91
2023-07-24T15:29:42.727Z,17.00
2023-07-24T15:32:09.862Z,17.10
2023-07-24T15:34:39.620Z,17.23
2023-07-24T15:37:07.115Z,17.35
2023-07-24T15:39:33.873Z,17.47
2023-07-24T15:42:00.751Z,17.60
2023-07-24T15:44:27.537Z,17.82
2023-07-24T15:46:54.476Z,18.11
2023-07-24T15:49:21.304Z,18.30
2023-07-24T15:51:47.999Z,18.49
2023-07-24T15:54:14.688Z,18.71
2023-07-24T15:56:42.019Z,19.22
2023-07-24T15:59:10.792Z,21.09
2023-07-24T16:01:37.775Z,22.93
2023-07-24T16:04:04.712Z,24.25
2023-07-24T16:06:31.381Z,25.76
2023-07-24T16:08:58.693Z,27.13
2023-07-24T16:11:25.442Z,27.66
2023-07-24T16:13:52.721Z,27.88
2023-07-24T16:16:19.611Z,28.56
2023-07-24T16:18:46.236Z,29.29
2023-07-24T16:21:12.778Z,30.01
2023-07-24T16:23:39.623Z,30.78
2023-07-24T16:26:06.484Z,30.96
2023-07-24T16:28:33.907Z,31.56
2023-07-24T16:31:00.790Z,31.96
2023-07-24T16:33:27.813Z,31.81
2023-07-24T16:35:54.709Z,30.77
2023-07-24T16:38:23.434Z,30.13
2023-07-24T16:40:52.264Z,29.39
2023-07-24T16:43:19.539Z,28.89
2023-07-24T16:48:20.106Z,27.83
2023-07-24T16:50:47.406Z,27.70
2023-07-24T16:53:14.149Z,27.81
2023-07-24T16:55:41.071Z,27.64
2023-07-24T16:58:07.918Z,27.58
2023-07-24T17:00:35.325Z,27.52
2023-07-24T17:03:02.902Z,27.05
2023-07-24T17:05:29.830Z,26.76
2023-07-24T17:07:56.472Z,25.91
2023-07-24T17:10:23.228Z,25.06
2023-07-24T17:12:49.852Z,24.35
2023-07-24T17:15:16.935Z,23.68
2023-07-24T17:17:45.532Z,23.04
2023-07-24T17:20:12.192Z,22.48
2023-07-24T17:22:39.206Z,21.99
2023-07-24T17:25:06.337Z,21.58
2023-07-24T17:27:35.747Z,21.19
2023-07-24T17:30:02.295Z,20.86
2023-07-24T17:32:29.163Z,20.67
2023-07-24T17:34:55.768Z,20.39
2023-07-24T17:37:36.315Z,20.16
2023-07-24T17:40:06.178Z,20.19
2023-07-24T17:42:33.184Z,20.41
2023-07-24T17:44:59.976Z,20.38
2023-07-24T17:47:26.909Z,20.33
2023-07-24T17:50:05.866Z,20.34
2023-07-24T17:52:33.996Z,20.63
2023-07-24T17:55:00.708Z,20.98
2023-07-24T17:57:27.820Z,21.95
2023-07-24T17:59:54.643Z,22.78
2023-07-24T18:02:21.566Z,23.66
2023-07-24T18:04:48.265Z,24.46
2023-07-24T18:07:15.071Z,24.93
2023-07-24T18:09:41.675Z,24.46
2023-07-24T18:12:08.634Z,23.82
2023-07-24T18:14:35.536Z,23.09
2023-07-24T18:17:02.231Z,22.45
2023-07-24T18:19:29.409Z,21.86
2023-07-24T18:21:56.011Z,21.30
2023-07-24T18:24:23.092Z,20.84
2023-07-24T18:26:50.037Z,20.38
2023-07-24T18:29:17.142Z,19.97
2023-07-24T18:31:43.823Z,19.66
2023-07-24T18:34:10.675Z,19.39
2023-07-24T18:36:37.471Z,19.17
2023-07-24T18:39:04.214Z,19.01
2023-07-24T18:41:31.012Z,18.87
2023-07-24T18:43:58.098Z,18.75
2023-07-24T18:46:24.794Z,18.63
2023-07-24T18:48:53.106Z,18.52
2023-07-24T18:51:21.242Z,18.45
2023-07-24T18:53:48.784Z,18.35
2023-07-24T18:56:15.677Z,18.26
2023-07-24T18:58:44.790Z,18.17
2023-07-24T19:01:12.496Z,18.10
2023-07-24T19:03:39.504Z,18.03
2023-07-24T19:06:08.007Z,17.82
2023-07-24T19:08:34.874Z,17.50
2023-07-24T19:11:02.552Z,17.20
2023-07-24T19:13:32.722Z,16.88
2023-07-24T19:16:00.807Z,16.64
2023-07-24T19:18:27.595Z,16.47
2023-07-24T19:20:54.392Z,16.30
2023-07-24T19:23:21.330Z,16.15
2023-07-24T19:25:48.497Z,16.01
2023-07-24T19:28:15.581Z,15.88
2023-07-24T19:30:42.431Z,15.76
2023-07-24T19:33:10.981Z,15.61
2023-07-24T19:35:38.797Z,15.48
2023-07-24T19:38:05.617Z,15.39
2023-07-24T19:40:32.519Z,15.33
2023-07-24T19:42:59.249Z,15.28
2023-07-24T19:45:27.586Z,15.25
2023-07-24T19:47:54.690Z,15.24
2023-07-24T19:50:21.689Z,15.24
2023-07-24T19:52:50.205Z,15.25
2023-07-24T19:55:17.315Z,15.25
2023-07-24T19:57:46.417Z,15.25
2023-07-24T20:00:13.575Z,15.27
2023-07-24T20:02:41.100Z,15.29
2023-07-24T20:05:08.477Z,15.31
2023-07-24T20:07:35.418Z,15.33
2023-07-24T20:10:02.270Z,15.34
2023-07-24T20:12:29.376Z,15.35
2023-07-24T20:14:56.242Z,15.35
2023-07-24T20:17:22.918Z,15.35
2023-07-24T20:19:49.666Z,15.34
2023-07-24T20:22:16.478Z,15.34
2023-07-24T20:24:43.596Z,15.32
2023-07-24T20:27:10.584Z,15.31
2023-07-24T20:29:37.610Z,15.30
2023-07-24T20:32:05.000Z,15.30
2023-07-24T20:34:31.739Z,15.29
2023-07-24T20:36:58.561Z,15.28
2023-07-24T20:39:26.540Z,15.27
2023-07-24T20:41:53.605Z,15.25
2023-07-24T20:44:20.314Z,15.24
2023-07-24T20:46:47.114Z,15.24
2023-07-24T20:49:14.006Z,15.21
2023-07-24T20:51:41.873Z,15.19
2023-07-24T20:54:08.817Z,15.18
2023-07-24T20:56:35.433Z,15.17
2023-07-24T20:59:03.223Z,15.16
2023-07-24T21:01:30.165Z,15.15
2023-07-24T21:03:57.194Z,15.13
2023-07-24T21:06:24.045Z,15.12
2023-07-24T21:08:50.723Z,15.10
2023-07-24T21:11:17.928Z,15.11
2023-07-24T21:13:44.957Z,15.11
2023-07-24T21:16:12.193Z,15.12
2023-07-24T21:18:39.108Z,15.12
2023-07-24T21:21:08.422Z,15.10
2023-07-24T21:23:35.730Z,15.09
2023-07-24T21:26:02.416Z,15.06
2023-07-24T21:28:29.133Z,15.05
2023-07-24T21:30:55.731Z,15.04
2023-07-24T21:33:22.755Z,15.04
2023-07-24T21:36:00.537Z,15.05
2023-07-24T21:38:27.566Z,15.05
2023-07-24T21:40:54.336Z,15.05
2023-07-24T21:43:22.045Z,15.05
2023-07-24T21:45:49.753Z,15.05
2023-07-24T21:48:16.576Z,15.04
2023-07-24T21:50:47.908Z,15.05
2023-07-24T21:53:14.727Z,15.06
2023-07-24T21:55:41.572Z,15.08
2023-07-24T21:58:08.150Z,15.11
2023-07-24T22:00:36.031Z,15.12
2023-07-24T22:03:02.904Z,15.14
2023-07-24T22:05:29.621Z,15.15
2023-07-24T22:07:56.370Z,15.16
2023-07-24T22:10:23.590Z,15.16
2023-07-24T22:12:50.490Z,15.13
2023-07-24T22:15:17.470Z,15.10
2023-07-24T22:17:44.513Z,15.06
2023-07-24T22:20:17.145Z,15.03
2023-07-24T22:22:53.561Z,14.98
2023-07-24T22:25:20.639Z,14.95
2023-07-24T22:27:47.569Z,14.91
2023-07-24T22:30:14.328Z,14.87
2023-07-24T22:32:41.118Z,14.86
2023-07-24T22:35:08.546Z,14.86
2023-07-24T22:37:35.280Z,14.86
2023-07-24T22:40:02.128Z,14.87
2023-07-24T22:42:28.863Z,14.86
2023-07-24T22:44:55.620Z,14.84
2023-07-24T22:47:22.427Z,14.81
2023-07-24T22:49:49.160Z,14.78
2023-07-24T22:52:15.804Z,14.74
2023-07-24T22:54:43.037Z,14.72
2023-07-24T22:57:09.675Z,14.68
2023-07-24T22:59:36.452Z,14.64
2023-07-24T23:02:03.135Z,14.61
2023-07-24T23:04:29.933Z,14.58
2023-07-24T23:06:56.813Z,14.56
2023-07-24T23:09:24.042Z,14.52
2023-07-24T23:11:50.863Z,14.45
2023-07-24T23:14:17.483Z,14.40
2023-07-24T23:16:44.350Z,14.37
2023-07-24T23:19:10.889Z,14.32
2023-07-24T23:21:37.552Z,14.26
2023-07-24T23:24:05.015Z,14.20
2023-07-24T23:26:31.774Z,14.20
2023-07-24T23:28:59.594Z,14.18
2023-07-24T23:31:26.421Z,14.15
2023-07-24T23:33:53.262Z,14.12
2023-07-24T23:36:20.076Z,14.09
2023-07-24T23:38:46.759Z,14.08
2023-07-24T23:41:13.528Z,14.07
2023-07-24T23:43:40.132Z,14.07
2023-07-24T23:46:14.565Z,14.06
2023-07-24T23:48:42.127Z,14.04
2023-07-24T23:51:16.483Z,14.03
2023-07-24T23:53:43.981Z,14.04
2023-07-24T23:56:10.683Z,14.04
2023-07-24T23:58:37.404Z,14.04
